Latest Coastal Weather Observations for Edithburgh

IDS60701

Issued at 3:11 pm CST Sunday 29 May 2016 (issued every 10 minutes, with the page automatically refreshed every 10 minutes)

About coastal observations | Map of coastal stations | Coastal observations for SA | Marine services | Other Formats
Station Details ID: 022046 Name: EDITHBURGH Lat: -35.11 Lon: 137.74 Height: 6.0 m
Data from the previous 72 hours. | See also: Recent months at Edithburgh
Date/Time
CST
Temp

°C
Wind Pressure Rain
since 9am
mm
Weather Cloud Vis
km
Sea
Height
m
Swell
Dir
 
Speed
knots
Gust
knots
hPa Trend Height
m
Period
s
Dir
29/03:00pm 15.7 NE 9 13 1016.3 - 0.0 - - - - - - -
29/02:30pm 15.7 NNE 10 13 1016.4 - 0.0 - - - - - - -
29/02:00pm 15.1 NNE 8 13 1016.6 - 0.0 - - - - - - -
29/01:30pm 15.3 NNE 8 13 1016.9 - 0.0 - - - - - - -
29/01:00pm 15.0 NNE 9 14 1017.2 - 0.0 - - - - - - -
29/12:30pm 15.0 NNE 9 15 1017.6 - 0.0 - - - - - - -
29/12:00pm 14.8 NNE 9 13 1017.9 - 0.0 - - - - - - -
29/11:30am 14.7 NNE 9 14 1018.1 - 0.0 - - - - - - -
29/11:00am 14.4 NNE 10 17 1018.3 - 0.0 - - - - - - -
29/10:30am 14.5 NNE 10 15 1018.4 - 0.0 - - - - - - -
29/10:00am 14.6 NNE 11 15 1018.5 - 0.0 - - - - - - -
29/09:30am 14.1 NNE 10 15 1018.5 - 0.0 - - - - - - -
29/09:00am 13.7 NNE 9 15 1018.6 - 0.6 - - - - - - -
29/08:30am 13.5 NNE 9 14 1018.5 - 0.6 - - - - - - -
29/08:00am 13.0 NNE 7 12 1018.4 - 0.6 - - - - - - -
29/07:30am 11.8 N 5 8 1018.3 - 0.6 - - - - - - -
29/07:00am 11.6 N 5 7 1018.3 - 0.6 - - - - - - -
29/06:30am 10.7 N 4 6 1018.1 - 0.6 - - - - - - -
29/06:00am 11.4 N 6 8 1017.9 - 0.6 - - - - - - -
29/05:30am 12.4 NNE 6 10 1017.7 - 0.6 - - - - - - -
29/05:00am 11.6 N 4 6 1017.7 - 0.6 - - - - - - -
29/04:30am 10.9 N 3 4 1017.8 - 0.6 - - - - - - -
29/04:00am 11.0 N 5 6 1017.8 - 0.6 - - - - - - -
29/03:30am 11.1 NNW 5 7 1017.8 - 0.6 - - - - - - -
29/03:00am 13.7 NE 8 13 1017.6 - 0.6 - - - - - - -
29/02:30am 13.6 NNE 7 11 1017.6 - 0.6 - - - - - - -
29/02:00am 13.3 NNE 5 8 1017.8 - 0.6 - - - - - - -
29/01:30am 13.5 NNE 6 9 1017.9 - 0.6 - - - - - - -
29/01:00am 13.4 NE 8 11 1017.8 - 0.6 - - - - - - -
29/12:30am 13.4 NE 8 11 1017.9 - 0.6 - - - - - - -
29/12:00am 11.8 NE 6 8 1018.2 - 0.6 - - - - - - -
 
Date/Time
CST
Temp

°C
Wind Pressure Rain
since 9am
mm
Weather Cloud Vis
km
Sea
Height
m
Swell
Dir
 
Speed
knots
Gust
knots
hPa Trend Height
m
Period
s
Dir
28/11:30pm 9.1 NNE 3 5 1018.3 - 0.6 - - - - - - -
28/11:00pm 9.2 N 3 3 1018.5 - 0.6 - - - - - - -
28/10:30pm 9.6 NNW 2 3 1018.7 - 0.6 - - - - - - -
28/10:00pm 10.1 NNW 4 4 1018.8 - 0.6 - - - - - - -
28/09:30pm 10.5 NNW 2 3 1018.8 - 0.6 - - - - - - -
28/09:00pm 10.6 NNW 3 3 1018.7 - 0.6 - - - - - - -
28/08:30pm 10.9 NW 3 4 1018.7 - 0.6 - - - - - - -
28/08:00pm 11.0 NW 3 5 1018.8 - 0.6 - - - - - - -
28/07:30pm 11.2 WNW 4 5 1018.6 - 0.6 - - - - - - -
28/07:00pm 11.4 CALM 0 0 1018.3 - 0.6 - - - - - - -
28/06:30pm 11.4 SE 2 3 1018.1 - 0.6 - - - - - - -
28/06:00pm 12.2 ESE 1 2 1017.9 - 0.6 - - - - - - -
28/05:30pm 12.3 SE 2 3 1017.7 - 0.6 - - - - - - -
28/05:00pm 13.2 SE 2 3 1017.6 - 0.6 - - - - - - -
28/04:30pm 13.7 SSE 5 6 1017.6 - 0.6 - - - - - - -
28/04:00pm 14.2 SSW 3 4 1017.5 - 0.6 - - - - - - -
28/03:30pm 14.7 SW 3 5 1017.2 - 0.6 - - - - - - -
28/03:00pm 14.7 SSW 4 6 1017.0 - 0.6 - - - - - - -
28/02:30pm 15.3 WSW 3 4 1016.8 - 0.6 - - - - - - -
28/02:00pm 14.8 W 1 2 1016.9 - 0.6 - - - - - - -
28/01:30pm 14.1 SW 2 3 1016.8 - 0.6 - - - - - - -
28/01:00pm 13.3 SW 3 4 1017.1 - 0.6 - - - - - - -
28/12:30pm 13.1 SSW 8 11 1017.4 - 0.6 - - - - - - -
28/12:00pm 15.1 SE 6 8 1017.2 - 0.0 - - - - - - -
28/11:30am 15.3 SE 6 8 1017.4 - 0.0 - - - - - - -
28/11:00am 15.2 SE 7 9 1017.6 - 0.0 - - - - - - -
28/10:30am 15.3 SE 8 11 1017.5 - 0.0 - - - - - - -
28/10:00am 14.2 SE 5 7 1017.3 - 0.0 - - - - - - -
28/09:30am 14.7 SE 9 12 1016.9 - 0.0 - - - - - - -
28/09:00am 14.5 SSE 10 15 1016.4 - - - - - - - - -
28/08:30am 14.8 SSE 12 15 1016.1 - - - - - - - - -
28/08:00am 13.9 SSE 12 19 1015.6 - - - - - - - - -
28/07:30am 14.1 S 13 18 1015.3 - - - - - - - - -
28/07:00am 14.1 S 14 18 1014.7 - - - - - - - - -
28/06:30am 13.9 S 15 21 1014.1 - - - - - - - - -
28/06:00am 14.0 S 17 22 1013.2 - - - - - - - - -
28/05:30am 14.0 S 19 27 1012.7 - - - - - - - - -
28/05:00am 13.8 SSW 16 22 1012.3 - - - - - - - - -
28/04:30am 14.1 S 17 25 1012.0 - - - - - - - - -
28/04:00am 13.7 SSW 17 22 1011.8 - - - - - - - - -
28/03:30am 13.7 SSW 15 21 1011.6 - - - - - - - - -
28/03:00am 13.5 SSW 14 18 1011.4 - 0.2 - - - - - - -
28/02:30am 13.4 SSW 12 16 1011.2 - - - - - - - - -
28/02:00am 13.4 SW 11 16 1011.0 - - - - - - - - -
28/01:30am 12.9 SSW 11 17 1010.6 - - - - - - - - -
28/01:00am 9.4 W 4 6 1010.3 - - - - - - - - -
28/12:30am 9.8 W 5 6 1010.3 - - - - - - - - -
28/12:00am 9.9 WNW 8 10 1010.3 - - - - - - - - -
 
Date/Time
CST
Temp

°C
Wind Pressure Rain
since 9am
mm
Weather Cloud Vis
km
Sea
Height
m
Swell
Dir
 
Speed
knots
Gust
knots
hPa Trend Height
m
Period
s
Dir
27/11:30pm 9.7 WNW 8 10 1010.2 - - - - - - - - -
27/11:00pm 11.0 WNW 11 15 1010.1 - - - - - - - - -
27/10:30pm 10.8 WNW 11 14 1010.0 - - - - - - - - -
27/10:00pm 11.6 W 16 22 1010.0 - - - - - - - - -
27/09:30pm 12.4 WSW 14 23 1009.7 - - - - - - - - -
27/09:00pm 12.3 WSW 12 19 1009.8 - 0.8 Recent precip. - - - - - -
27/08:48pm 12.2 SW 15 25 1009.9 - - - - - - - - -
27/08:30pm 13.3 SW 13 21 1009.7 - - - - - - - - -
27/08:00pm 13.4 SW 17 24 1009.3 - - - - - - - - -
27/07:39pm 13.6 SW 19 30 1009.1 - - - - - - - - -
27/07:30pm 13.2 SW 17 23 1009.0 - - - - - - - - -
27/07:00pm 12.2 WSW 11 16 1009.0 - - - - - - - - -
27/06:30pm 12.1 WSW 12 18 1008.4 - - - - - - - - -
27/06:09pm 11.8 WSW 16 27 1008.0 - - - - - - - - -
27/06:00pm 12.3 SW 21 29 1008.1 - - - - - - - - -
27/05:47pm 12.4 SW 17 28 1008.1 - - - - - - - - -
27/05:30pm 11.9 SW 16 20 1007.9 - - - - - - - - -
27/05:10pm 12.3 WSW 15 27 1007.6 - - - - - - - - -
27/05:00pm 12.0 WSW 13 22 1007.6 - - - - - - - - -
27/04:30pm 11.1 W 13 17 1007.0 - - - - - - - - -
27/04:00pm 11.7 WSW 13 20 1006.9 - - - - - - - - -
27/03:30pm 11.7 WSW 13 18 1006.8 - - - - - - - - -
27/03:00pm 10.5 WSW 19 37 1006.8 - - Rain - - - - - -
27/02:55pm 12.7 SW 16 37 1006.4 - - - - - - - - -
27/02:30pm 11.8 WSW 15 26 1006.4 - - - - - - - - -
27/02:21pm 12.4 WSW 15 26 1006.3 - - - - - - - - -
27/02:00pm 13.0 W 13 19 1006.0 - - - - - - - - -
27/01:30pm 12.0 W 15 22 1006.2 - - - - - - - - -
27/01:00pm 12.6 WSW 12 16 1006.5 - - - - - - - - -
27/12:30pm 11.3 WSW 16 23 1007.0 - - - - - - - - -
27/12:16pm 11.1 WSW 15 25 1007.4 - - - - - - - - -
27/12:00pm 10.9 WSW 19 33 1007.4 - - Rain - - - - - -
27/11:46am 10.9 WSW 21 38 1007.5 - - - - - - - - -
27/11:45am 10.9 WSW 20 38 1007.2 - - - - - - - - -
27/11:44am 11.4 WSW 18 38 1007.6 - - - - - - - - -
27/11:30am 12.2 W 16 23 1007.3 - - - - - - - - -
27/11:00am 12.8 - - - 1007.4 - - - - - - - - -
27/09:00am 13.9 WNW 9 13 1007.8 - 2.0 - - - - - - -
27/08:30am 12.6 WNW 8 10 1008.0 - 2.0 - - - - - - -
27/08:00am 12.4 NW 10 12 1007.9 - 2.0 - - - - - - -
27/07:30am 12.0 NW 10 13 1008.0 - 2.0 - - - - - - -
27/07:00am 12.3 NW 11 13 1008.0 - 2.0 - - - - - - -
27/06:30am 12.3 WNW 13 19 1008.1 - 1.8 - - - - - - -
27/06:00am 12.9 NW 15 21 1007.8 - 0.6 - - - - - - -
27/05:30am 12.9 NW 15 19 1007.8 - 0.6 - - - - - - -
27/05:00am 13.2 WNW 14 18 1007.9 - 0.6 - - - - - - -
27/04:30am 13.2 NW 10 13 1008.2 - 0.6 - - - - - - -
27/04:00am 12.4 NNW 8 9 1008.4 - 0.6 - - - - - - -
27/03:30am 12.2 NNW 6 7 1008.8 - 0.6 - - - - - - -
27/03:00am 11.2 NNW 6 7 1009.1 - 0.2 Recent precip. - - - - - -
27/02:30am 9.2 NNW 6 7 1009.4 - 0.0 - - - - - - -
27/02:00am 10.4 N 8 9 1009.7 - 0.0 - - - - - - -
27/01:30am 8.9 NNW 5 6 1010.0 - 0.0 - - - - - - -
27/01:00am 8.6 NNW 6 7 1010.3 - 0.0 - - - - - - -
27/12:30am 8.4 NNW 5 6 1010.6 - 0.0 - - - - - - -
27/12:00am 8.8 NNW 6 8 1010.7 - 0.0 - - - - - - -
 
Date/Time
CST
Temp

°C
Wind Pressure Rain
since 9am
mm
Weather Cloud Vis
km
Sea
Height
m
Swell
Dir
 
Speed
knots
Gust
knots
hPa Trend Height
m
Period
s
Dir
26/11:30pm 9.0 NNW 4 5 1011.0 - 0.0 - - - - - - -
26/11:00pm 9.9 NW 5 6 1011.1 - 0.0 - - - - - - -
26/10:30pm 10.7 NW 7 9 1011.4 - 0.0 - - - - - - -
26/10:00pm 9.7 WNW 7 9 1011.6 - 0.0 - - - - - - -
26/09:30pm 8.9 WNW 7 8 1011.8 - 0.0 - - - - - - -
26/09:00pm 10.4 WNW 6 7 1011.8 - 0.0 - - - - - - -
26/08:30pm 10.3 WNW 8 10 1011.9 - 0.0 - - - - - - -
26/08:00pm 11.0 WNW 8 9 1011.8 - 0.0 - - - - - - -
26/07:30pm 11.3 WNW 8 9 1011.5 - 0.0 - - - - - - -
26/07:00pm 11.3 WNW 7 8 1011.3 - 0.0 - - - - - - -
26/06:30pm 11.9 WNW 7 9 1011.3 - 0.0 - - - - - - -
26/06:00pm 12.3 WNW 5 7 1010.9 - 0.0 - - - - - - -
26/05:30pm 13.3 W 5 8 1010.5 - 0.0 - - - - - - -
26/05:00pm 14.9 WSW 7 10 1010.4 - 0.0 - - - - - - -
26/04:30pm 15.9 WSW 7 11 1010.1 - 0.0 - - - - - - -
26/04:00pm 16.4 WSW 9 13 1009.8 - 0.0 - - - - - - -
26/03:30pm 17.1 WSW 8 12 1009.7 - 0.0 - - - - - - -

Other Formats:

Comma delimited format used in spreadsheet applications
http://www.bom.gov.au/fwo/IDS60701/IDS60701.94809.axf

JavaScript Object Notation format (JSON) in row-major order
http://www.bom.gov.au/fwo/IDS60701/IDS60701.94809.json